createdAt,value
2023-01-17T00:02:08.067Z,5.34
2023-01-17T00:04:54.012Z,5.36
2023-01-17T00:07:42.521Z,5.38
2023-01-17T00:10:11.472Z,5.38
2023-01-17T00:12:39.153Z,5.35
2023-01-17T00:15:07.204Z,5.31
2023-01-17T00:17:34.415Z,5.32
2023-01-17T00:20:21.781Z,5.27
2023-01-17T00:23:09.130Z,5.34
2023-01-17T00:25:57.727Z,5.32
2023-01-17T00:28:26.152Z,5.36
2023-01-17T00:30:53.768Z,5.36
2023-01-17T00:33:22.532Z,5.27
2023-01-17T00:35:51.053Z,5.26
2023-01-17T00:38:23.123Z,5.24
2023-01-17T00:40:50.350Z,5.26
2023-01-17T00:43:42.120Z,5.30
2023-01-17T00:46:27.797Z,5.24
2023-01-17T00:49:13.647Z,5.22
2023-01-17T00:51:59.423Z,5.19
2023-01-17T00:54:44.983Z,5.19
2023-01-17T00:57:30.919Z,5.18
2023-01-17T01:00:16.467Z,5.16
2023-01-17T01:03:02.495Z,5.13
2023-01-17T01:05:48.467Z,5.20
2023-01-17T01:08:40.103Z,5.08
2023-01-17T01:11:31.054Z,5.03
2023-01-17T01:14:23.913Z,4.99
2023-01-17T01:17:09.420Z,5.03
2023-01-17T01:19:54.826Z,4.97
2023-01-17T01:22:40.466Z,4.93
2023-01-17T01:25:26.675Z,4.88
2023-01-17T01:28:21.616Z,4.86
2023-01-17T01:31:07.175Z,4.69
2023-01-17T01:33:34.312Z,4.66
2023-01-17T01:36:01.395Z,4.50
2023-01-17T01:38:28.533Z,4.47
2023-01-17T01:40:56.460Z,4.52
2023-01-17T01:43:48.068Z,4.52
2023-01-17T01:46:20.220Z,4.48
2023-01-17T01:48:52.815Z,4.50
2023-01-17T01:51:25.560Z,4.54
2023-01-17T01:53:55.627Z,4.47
2023-01-17T01:56:23.846Z,4.49
2023-01-17T01:58:52.902Z,4.52
2023-01-17T02:01:20.211Z,4.47
2023-01-17T02:03:49.387Z,4.43
2023-01-17T02:06:26.948Z,4.36
2023-01-17T02:08:55.859Z,4.37
2023-01-17T02:11:22.949Z,4.34
2023-01-17T02:13:50.072Z,4.33
2023-01-17T02:16:38.295Z,4.23
2023-01-17T02:19:56.208Z,4.16
2023-01-17T02:22:44.939Z,4.16
2023-01-17T02:25:26.951Z,4.03
2023-01-17T02:28:29.169Z,4.02
2023-01-17T02:31:10.225Z,4.02
2023-01-17T02:33:47.407Z,4.05
2023-01-17T02:36:17.351Z,4.02
2023-01-17T02:38:56.966Z,4.03
2023-01-17T02:41:33.437Z,3.98
2023-01-17T02:44:01.943Z,3.99
2023-01-17T02:46:29.049Z,3.97
2023-01-17T02:48:57.767Z,3.99
2023-01-17T02:52:00.773Z,4.10
2023-01-17T02:54:42.894Z,4.02
2023-01-17T02:57:12.650Z,4.02
2023-01-17T03:00:14.723Z,4.01
2023-01-17T03:02:55.996Z,3.99
2023-01-17T03:05:31.653Z,3.98
2023-01-17T03:08:00.352Z,3.97
2023-01-17T03:10:31.499Z,3.88
2023-01-17T03:13:00.458Z,3.75
2023-01-17T03:15:27.596Z,3.72
2023-01-17T03:18:00.209Z,3.67
2023-01-17T03:20:27.375Z,3.60
2023-01-17T03:22:54.451Z,3.53
2023-01-17T03:25:21.503Z,3.56
2023-01-17T03:27:48.662Z,3.49
2023-01-17T03:30:16.121Z,3.40
2023-01-17T03:32:43.271Z,3.34
2023-01-17T03:35:10.359Z,3.30
2023-01-17T03:37:37.456Z,3.15
2023-01-17T03:40:05.344Z,3.13
2023-01-17T03:42:32.436Z,3.06
2023-01-17T03:44:59.518Z,2.97
2023-01-17T03:47:26.662Z,2.91
2023-01-17T03:49:53.738Z,2.87
2023-01-17T03:52:20.839Z,2.76
2023-01-17T03:54:48.472Z,2.71
2023-01-17T03:57:15.670Z,2.67
2023-01-17T03:59:42.787Z,2.66
2023-01-17T04:02:09.943Z,2.72
2023-01-17T04:04:37.074Z,2.66
2023-01-17T04:07:04.451Z,2.59
2023-01-17T04:09:34.028Z,2.54
2023-01-17T04:12:02.670Z,2.58
2023-01-17T04:14:29.899Z,2.44
2023-01-17T04:16:57.264Z,2.44
2023-01-17T04:19:24.511Z,2.42
2023-01-17T04:21:51.571Z,2.59
2023-01-17T04:24:18.657Z,2.49
2023-01-17T04:26:45.765Z,2.40
2023-01-17T04:29:12.835Z,2.37
2023-01-17T04:31:40.056Z,2.40
2023-01-17T04:34:07.192Z,2.48
2023-01-17T04:36:34.247Z,2.36
2023-01-17T04:39:01.353Z,2.34
2023-01-17T04:41:28.445Z,2.27
2023-01-17T04:43:55.669Z,2.22
2023-01-17T04:46:22.793Z,2.32
2023-01-17T04:48:49.885Z,2.25
2023-01-17T04:51:17.085Z,2.25
2023-01-17T04:53:44.173Z,2.18
2023-01-17T04:56:11.266Z,2.23
2023-01-17T04:58:38.375Z,2.22
2023-01-17T05:01:08.051Z,2.14
2023-01-17T05:03:36.153Z,2.06
2023-01-17T05:06:03.628Z,2.07
2023-01-17T05:08:30.864Z,2.06
2023-01-17T05:10:57.987Z,1.98
2023-01-17T05:13:25.064Z,1.99
2023-01-17T05:15:52.344Z,2.02
2023-01-17T05:18:19.560Z,2.11
2023-01-17T05:20:47.004Z,2.14
2023-01-17T05:23:14.060Z,2.26
2023-01-17T05:25:44.221Z,2.20
2023-01-17T05:28:13.581Z,2.33
2023-01-17T05:30:41.165Z,2.35
2023-01-17T05:33:10.125Z,2.47
2023-01-17T05:35:37.599Z,2.53
2023-01-17T05:38:04.819Z,2.60
2023-01-17T05:40:33.336Z,2.53
2023-01-17T05:43:01.680Z,2.54
2023-01-17T05:45:30.607Z,2.60
2023-01-17T05:47:58.505Z,2.66
2023-01-17T05:50:29.145Z,2.67
2023-01-17T05:53:10.772Z,2.74
2023-01-17T05:55:38.769Z,2.74
2023-01-17T05:58:08.631Z,2.75
2023-01-17T06:00:37.310Z,2.75
2023-01-17T06:03:04.522Z,2.77
2023-01-17T06:05:31.796Z,2.87
2023-01-17T06:07:59.322Z,2.90
2023-01-17T06:10:27.387Z,2.92
2023-01-17T06:13:09.646Z,2.91
2023-01-17T06:15:37.986Z,2.97
2023-01-17T06:18:10.181Z,3.03
2023-01-17T06:20:37.931Z,3.05
2023-01-17T06:23:07.522Z,3.02
2023-01-17T06:25:39.481Z,3.04
2023-01-17T06:28:07.498Z,3.02
2023-01-17T06:30:34.795Z,3.08
2023-01-17T06:33:02.755Z,3.11
2023-01-17T06:35:30.302Z,3.06
2023-01-17T06:37:59.678Z,3.11
2023-01-17T06:40:28.635Z,3.05
2023-01-17T06:43:03.197Z,3.07
2023-01-17T06:45:31.978Z,3.09
2023-01-17T06:48:00.713Z,3.12
2023-01-17T06:50:27.851Z,3.11
2023-01-17T06:53:00.357Z,3.10
2023-01-17T06:55:28.880Z,3.06
2023-01-17T06:57:57.270Z,3.12
2023-01-17T07:00:24.600Z,3.09
2023-01-17T07:02:52.390Z,3.15
2023-01-17T07:05:20.226Z,3.22
2023-01-17T07:07:48.067Z,3.16
2023-01-17T07:10:15.940Z,3.23
2023-01-17T07:12:43.040Z,3.34
2023-01-17T07:15:10.801Z,3.32
2023-01-17T07:17:38.370Z,3.33
2023-01-17T07:20:06.788Z,3.36
2023-01-17T07:22:34.134Z,3.36
2023-01-17T07:25:01.241Z,3.40
2023-01-17T07:27:30.441Z,3.48
2023-01-17T07:29:58.030Z,3.50
2023-01-17T07:32:26.614Z,3.53
2023-01-17T07:34:54.730Z,3.68
2023-01-17T07:37:22.021Z,3.71
2023-01-17T07:39:49.394Z,3.78
2023-01-17T07:42:16.581Z,3.74
2023-01-17T07:44:45.328Z,3.84
2023-01-17T07:47:12.412Z,3.81
2023-01-17T07:49:39.918Z,3.83
2023-01-17T07:52:08.110Z,3.89
2023-01-17T07:54:35.647Z,3.90
2023-01-17T07:57:03.701Z,3.87
2023-01-17T07:59:30.815Z,3.91
2023-01-17T08:01:58.068Z,3.87
2023-01-17T08:04:26.821Z,4.03
2023-01-17T08:06:55.010Z,4.08
2023-01-17T08:09:22.210Z,4.08
2023-01-17T08:11:49.668Z,4.12
2023-01-17T08:14:16.964Z,4.24
2023-01-17T08:16:44.104Z,4.29
2023-01-17T08:19:11.373Z,4.38
2023-01-17T08:21:38.475Z,4.36
2023-01-17T08:24:05.936Z,4.33
2023-01-17T08:26:33.059Z,4.61
2023-01-17T08:29:01.920Z,4.57
2023-01-17T08:31:35.030Z,4.56
2023-01-17T08:34:02.521Z,4.54
2023-01-17T08:36:31.182Z,4.65
2023-01-17T08:38:59.848Z,4.63
2023-01-17T08:41:27.766Z,4.67
2023-01-17T08:43:54.888Z,4.68
2023-01-17T08:46:22.486Z,4.55
2023-01-17T08:48:54.121Z,4.57
2023-01-17T08:51:22.151Z,4.63
2023-01-17T08:53:49.261Z,4.65
2023-01-17T08:56:16.371Z,4.55
2023-01-17T08:58:43.528Z,4.50
2023-01-17T09:01:10.804Z,4.52
2023-01-17T09:03:40.765Z,4.62
2023-01-17T09:06:13.701Z,4.53
2023-01-17T09:08:41.154Z,4.51
2023-01-17T09:11:10.664Z,4.48
2023-01-17T09:13:38.631Z,4.40
2023-01-17T09:16:06.521Z,4.47
2023-01-17T09:18:34.854Z,4.55
2023-01-17T09:21:16.112Z,4.60
2023-01-17T09:23:43.615Z,4.48
2023-01-17T09:26:23.977Z,4.54
2023-01-17T09:28:51.965Z,4.56
2023-01-17T09:31:20.993Z,4.55
2023-01-17T09:33:49.549Z,4.62
2023-01-17T09:36:17.179Z,4.60
2023-01-17T09:38:44.719Z,4.67
2023-01-17T09:41:27.393Z,4.69
2023-01-17T09:43:57.263Z,4.68
2023-01-17T09:46:29.090Z,4.68
2023-01-17T09:49:06.176Z,4.67
2023-01-17T09:51:33.590Z,4.68
2023-01-17T09:54:02.441Z,4.69
2023-01-17T09:56:40.158Z,4.64
2023-01-17T09:59:32.159Z,4.73
2023-01-17T10:02:02.028Z,4.79
2023-01-17T10:04:41.243Z,4.73
2023-01-17T10:07:11.267Z,4.70
2023-01-17T10:09:38.274Z,4.79
2023-01-17T10:12:16.918Z,4.83
2023-01-17T10:15:26.907Z,4.91
2023-01-17T10:18:31.783Z,4.86
2023-01-17T10:21:05.702Z,4.92
